.
WxDataArchive / Data Records for 2012-04-28
2012-04-27 April 2012 2012-04-29

Data Records for Saturday, 28 April 2012

Time	Temp	Chill	HIndex	Humid	Dewpt	 Wind 	HiWind	WindDir	Rain 	Barom 
-----	----	-----	------	-----	-----	------	------	-------	-----	----- 
00:00	47.6	47.6	47.6	42	25.7	1	2	68	0.00	30.163 
00:05	47.6	47.6	47.6	42	25.7	1	3	68	0.00	30.163 
00:10	47.7	47.7	47.7	41	25.2	1	4	68	0.00	30.163 
00:15	47.7	47.7	47.7	42	25.7	0	2	68	0.00	30.163 
00:20	47.7	47.7	47.7	42	25.7	0	2	68	0.00	30.163 
00:25	47.7	47.7	47.7	42	25.7	0	2	68	0.00	30.163 
00:30	47.7	47.7	47.7	43	26.3	0	1	68	0.00	30.171 
00:35	47.6	47.6	47.6	43	26.2	0	1	68	0.00	30.171 
00:40	47.6	47.6	47.6	43	26.2	0	1	68	0.00	30.171 
00:45	47.4	47.4	47.4	44	26.6	0	1	68	0.00	30.188 
00:50	47.4	47.4	47.4	46	27.7	0	1	68	0.00	30.188 
00:55	47.4	47.4	47.4	45	27.1	0	1	68	0.00	30.188 
01:00	47.4	47.4	47.4	45	27.1	1	3	68	0.00	30.174 
01:05	47.6	47.6	47.6	45	27.3	1	2	68	0.00	30.174 
01:10	47.6	47.6	47.6	45	27.3	0	2	68	0.00	30.174 
01:15	47.7	47.7	47.7	46	27.9	1	3	68	0.00	30.176 
01:20	47.7	47.7	47.7	47	28.5	1	3	68	0.00	30.176 
01:25	47.6	47.6	47.6	50	29.9	1	4	68	0.00	30.176 
01:30	47.3	47.3	47.3	51	30.1	1	2	68	0.00	30.168 
01:35	47.0	47.0	47.0	54	31.2	1	4	68	0.00	30.168 
01:40	46.8	46.8	46.8	53	30.6	0	2	68	0.00	30.168 
01:45	46.8	46.8	46.8	54	31.0	0	2	68	0.00	30.166 
01:50	46.4	46.4	46.4	57	32.0	1	3	68	0.00	30.166 
01:55	46.0	46.0	46.0	60	32.9	1	3	68	0.01	30.166 
02:00	45.7	45.7	45.7	62	33.4	0	2	68	0.00	30.168 
02:05	45.4	45.4	45.4	64	33.9	0	1	68	0.00	30.168 
02:10	45.2	45.2	45.2	64	33.8	0	1	68	0.00	30.168 
02:15	45.1	45.1	45.1	66	34.4	0	0	---	0.01	30.185 
02:20	44.8	44.8	44.8	69	35.3	0	0	---	0.01	30.185 
02:25	44.5	44.5	44.5	73	36.4	0	0	---	0.01	30.185 
02:30	44.3	44.3	44.3	74	36.5	0	0	---	0.00	30.186 
02:35	43.9	43.9	43.9	75	36.5	0	0	---	0.01	30.186 
02:40	43.6	43.6	43.6	78	37.2	0	0	---	0.00	30.186 
02:45	43.3	43.3	43.3	79	37.2	0	0	---	0.00	30.185 
02:50	43.1	43.1	43.1	79	37.0	0	0	---	0.00	30.185 
02:55	43.1	43.1	43.1	81	37.7	0	0	---	0.00	30.185 
03:00	42.9	42.9	42.9	81	37.5	0	0	---	0.00	30.183 
03:05	42.8	42.8	42.8	82	37.7	0	0	---	0.00	30.183 
03:10	42.6	42.6	42.6	83	37.8	0	0	---	0.00	30.183 
03:15	42.5	42.5	42.5	83	37.7	0	0	---	0.00	30.185 
03:20	42.5	42.5	42.5	83	37.7	0	0	---	0.00	30.185 
03:25	42.5	42.5	42.5	81	37.1	0	1	68	0.00	30.185 
03:30	42.5	42.5	42.5	81	37.1	0	1	68	0.00	30.173 
03:35	42.6	42.6	42.6	79	36.6	0	2	68	0.00	30.173 
03:40	42.8	42.8	42.8	78	36.4	0	2	68	0.00	30.173 
03:45	42.9	42.9	42.9	78	36.5	0	2	68	0.00	30.167 
03:50	43.1	43.1	43.1	77	36.4	1	3	68	0.00	30.167 
03:55	43.1	43.1	43.1	76	36.1	1	3	68	0.00	30.167 
04:00	43.1	43.1	43.1	75	35.7	1	3	68	0.00	30.157 
04:05	43.1	43.1	43.1	77	36.4	1	3	68	0.00	30.157 
04:10	43.1	43.1	43.1	76	36.1	0	2	68	0.00	30.157 
04:15	43.1	43.1	43.1	77	36.4	0	1	68	0.00	30.164 
04:20	43.1	43.1	43.1	77	36.4	0	2	68	0.00	30.164 
04:25	42.9	42.9	42.9	77	36.2	1	3	68	0.00	30.164 
04:30	42.9	42.9	42.9	77	36.2	0	2	68	0.00	30.157 
04:35	42.8	42.8	42.8	77	36.1	1	2	68	0.00	30.157 
04:40	42.6	42.6	42.6	77	35.9	1	3	68	0.00	30.157 
04:45	42.5	42.5	42.5	77	35.8	1	3	68	0.00	30.161 
04:50	42.5	42.5	42.5	77	35.8	1	2	68	0.00	30.161 
04:55	42.3	42.3	42.3	76	35.3	1	4	112	0.00	30.161 
05:00	42.5	42.5	42.5	74	34.8	1	3	112	0.00	30.168 
05:05	42.5	42.5	42.5	73	34.5	0	2	112	0.00	30.168 
05:10	42.6	42.6	42.6	71	33.9	1	3	112	0.00	30.168 
05:15	42.8	42.8	42.8	69	33.3	1	4	112	0.00	30.187 
05:20	42.9	42.9	42.9	70	33.8	1	4	112	0.00	30.187 
05:25	42.9	42.9	42.9	69	33.4	1	5	90	0.00	30.187 
05:30	42.9	42.9	42.9	69	33.4	2	4	90	0.00	30.185 
05:35	42.9	42.9	42.9	69	33.4	1	6	68	0.00	30.185 
05:40	42.9	42.9	42.9	70	33.8	2	5	90	0.00	30.185 
05:45	42.8	42.8	42.8	70	33.7	2	5	112	0.00	30.176 
05:50	42.6	42.6	42.6	69	33.2	3	7	112	0.00	30.176 
05:55	42.6	42.6	42.6	69	33.2	1	5	90	0.00	30.176 
06:00	42.5	42.5	42.5	69	33.1	2	4	90	0.00	30.175 
06:05	42.5	42.5	42.5	69	33.1	1	4	112	0.00	30.175 
06:10	42.5	42.5	42.5	69	33.1	1	3	112	0.00	30.175 
06:15	42.6	42.6	42.6	69	33.2	2	4	90	0.00	30.166 
06:20	42.6	42.6	42.6	69	33.2	2	4	90	0.00	30.166 
06:25	42.6	42.6	42.6	69	33.2	2	5	90	0.00	30.166 
06:30	42.6	42.6	42.6	68	32.8	3	5	90	0.00	30.152 
06:35	42.6	42.6	42.6	68	32.8	2	6	90	0.00	30.152 
06:40	42.6	42.6	42.6	67	32.4	2	6	90	0.00	30.152 
06:45	42.6	42.6	42.6	67	32.4	2	9	68	0.00	30.154 
06:50	42.6	42.6	42.6	65	31.7	2	5	90	0.00	30.154 
06:55	42.8	42.8	42.8	64	31.5	2	5	90	0.00	30.154 
07:00	42.8	42.8	42.8	63	31.1	3	6	90	0.00	30.155 
07:05	43.1	43.1	43.1	62	31.0	3	6	68	0.00	30.155 
07:10	43.1	43.1	43.1	62	31.0	2	5	112	0.00	30.155 
07:15	43.2	43.2	43.2	61	30.7	3	7	90	0.00	30.144 
07:20	43.3	43.3	43.3	60	30.4	3	6	90	0.00	30.144 
07:25	43.5	43.5	43.5	59	30.1	3	6	90	0.00	30.144 
07:30	43.5	43.5	43.5	59	30.1	3	7	90	0.00	30.137 
07:35	43.6	41.5	43.6	59	30.2	4	9	112	0.00	30.137 
07:40	43.6	41.5	43.6	59	30.2	4	12	90	0.00	30.137 
07:45	43.8	41.7	43.8	59	30.4	4	10	90	0.00	30.131 
07:50	43.9	41.8	43.9	59	30.5	4	10	112	0.00	30.131 
07:55	43.9	41.1	43.9	58	30.1	5	12	90	0.00	30.131 
08:00	44.1	44.1	44.1	58	30.3	3	8	90	0.00	30.134 
08:05	44.1	44.1	44.1	59	30.7	3	6	90	0.00	30.134 
08:10	43.9	41.8	43.9	58	30.1	4	9	112	0.00	30.134 
08:15	44.1	44.1	44.1	59	30.7	3	5	90	0.00	30.127 
08:20	44.1	44.1	44.1	59	30.7	3	7	68	0.00	30.127 
08:25	44.2	42.2	44.2	59	30.8	4	12	90	0.00	30.127 
08:30	44.2	42.2	44.2	60	31.2	4	9	90	0.00	30.129 
08:35	44.3	44.3	44.3	59	30.9	3	10	90	0.00	30.129 
08:40	44.3	42.3	44.3	58	30.5	4	8	90	0.00	30.129 
08:45	44.3	42.3	44.3	58	30.5	4	6	90	0.00	30.125 
08:50	44.3	42.3	44.3	56	29.6	4	9	112	0.00	30.125 
08:55	44.5	44.5	44.5	57	30.2	3	9	112	0.00	30.125 
09:00	44.5	44.5	44.5	56	29.8	3	6	90	0.00	30.121 
09:05	44.5	44.5	44.5	56	29.8	3	7	90	0.00	30.121 
09:10	44.5	44.5	44.5	54	28.9	2	5	90	0.00	30.121 
09:15	44.5	44.5	44.5	55	29.3	3	6	90	0.00	30.115 
09:20	44.3	44.3	44.3	57	30.0	3	7	90	0.00	30.115 
09:25	44.1	44.1	44.1	60	31.1	3	7	90	0.01	30.115 
09:30	43.6	43.6	43.6	62	31.5	2	4	90	0.00	30.117 
09:35	43.2	43.2	43.2	65	32.2	2	6	112	0.01	30.117 
09:40	42.6	42.6	42.6	67	32.4	0	3	112	0.00	30.117 
09:45	41.9	41.9	41.9	71	33.2	0	0	---	0.01	30.171 
09:50	41.3	41.3	41.3	74	33.6	0	2	112	0.00	30.171 
09:55	40.8	40.8	40.8	75	33.5	0	3	112	0.01	30.171 
10:00	40.2	40.2	40.2	76	33.3	2	4	112	0.00	30.153 
10:05	39.5	39.5	39.5	77	32.9	1	4	68	0.01	30.153 
10:10	38.9	38.9	38.9	79	33.0	0	0	---	0.01	30.153 
10:15	38.6	38.6	38.6	81	33.3	1	4	68	0.00	30.172 
10:20	38.5	38.5	38.5	81	33.2	1	3	68	0.01	30.172 
10:25	38.3	38.3	38.3	81	33.0	1	4	68	0.00	30.172 
10:30	38.3	38.3	38.3	82	33.3	2	4	68	0.00	30.158 
10:35	38.3	38.3	38.3	82	33.3	3	6	90	0.01	30.158 
10:40	38.5	38.5	38.5	83	33.8	1	4	90	0.00	30.158 
10:45	38.5	38.5	38.5	83	33.8	1	3	90	0.00	30.177 
10:50	38.6	38.6	38.6	83	33.9	0	2	90	0.01	30.177 
10:55	38.8	38.8	38.8	83	34.1	0	2	90	0.00	30.177 
11:00	39.1	39.1	39.1	83	34.4	2	4	90	0.00	30.175 
11:05	39.5	39.5	39.5	83	34.8	1	3	90	0.01	30.175 
11:10	39.6	39.6	39.6	84	35.2	1	3	90	0.00	30.175 
11:15	39.9	39.9	39.9	82	34.9	2	5	90	0.00	30.178 
11:20	40.2	40.2	40.2	83	35.5	1	4	90	0.01	30.178 
11:25	40.2	40.2	40.2	82	35.2	2	4	68	0.00	30.178 
11:30	40.3	40.3	40.3	83	35.6	2	6	68	0.00	30.187 
11:35	40.6	40.6	40.6	82	35.5	2	5	112	0.00	30.187 
11:40	40.8	40.8	40.8	82	35.7	2	5	68	0.00	30.187 
11:45	41.1	41.1	41.1	82	36.0	2	6	90	0.00	30.187 
11:50	41.3	41.3	41.3	81	35.9	3	10	90	0.01	30.187 
11:55	41.6	39.2	41.6	79	35.6	4	11	68	0.00	30.187 
12:00	42.1	39.7	42.1	79	36.1	4	9	90	0.00	30.179 
12:05	42.3	40.0	42.3	78	35.9	4	8	90	0.00	30.179 
12:10	42.6	40.3	42.6	77	35.9	4	10	112	0.00	30.179 
12:15	43.1	43.1	43.1	77	36.4	3	7	90	0.01	30.171 
12:20	43.2	41.0	43.2	76	36.2	4	7	90	0.00	30.171 
12:25	43.2	43.2	43.2	75	35.8	3	9	90	0.00	30.171 
12:30	43.2	41.0	43.2	76	36.2	4	10	90	0.00	30.171 
12:35	43.2	41.0	43.2	73	35.1	4	11	112	0.00	30.171 
12:40	43.3	40.3	43.3	73	35.2	5	11	112	0.00	30.171 
12:45	43.5	41.4	43.5	72	35.1	4	13	112	0.00	30.159 
12:50	43.6	40.7	43.6	71	34.8	5	12	90	0.00	30.159 
12:55	43.8	41.7	43.8	70	34.7	4	13	90	0.01	30.159 
13:00	43.9	41.1	43.9	70	34.8	5	11	112	0.00	30.156 
13:05	44.1	44.1	44.1	73	36.0	3	9	90	0.00	30.156 
13:10	44.3	42.3	44.3	71	35.5	4	11	90	0.00	30.156 
13:15	44.3	41.5	44.3	71	35.5	5	10	90	0.00	30.152 
13:20	44.3	41.5	44.3	71	35.5	5	14	90	0.00	30.152 
13:25	44.3	41.5	44.3	69	34.8	5	13	90	0.00	30.152 
13:30	44.2	41.4	44.2	71	35.4	5	13	90	0.00	30.146 
13:35	44.2	42.2	44.2	72	35.8	4	13	90	0.00	30.146 
13:40	44.3	42.3	44.3	73	36.2	4	11	90	0.00	30.146 
13:45	44.2	42.2	44.2	70	35.0	4	12	90	0.00	30.143 
13:50	43.9	39.8	43.9	69	34.4	7	15	90	0.00	30.143 
13:55	43.9	41.1	43.9	69	34.4	5	12	112	0.00	30.143 
14:00	43.9	41.1	43.9	70	34.8	5	11	90	0.00	30.142 
14:05	44.1	40.6	44.1	70	35.0	6	16	90	0.00	30.142 
14:10	44.2	41.4	44.2	70	35.0	5	13	90	0.00	30.142 
14:15	44.2	40.8	44.2	69	34.7	6	13	112	0.00	30.137 
14:20	44.3	41.5	44.3	70	35.1	5	11	90	0.00	30.137 
14:25	44.5	42.5	44.5	71	35.7	4	12	90	0.00	30.137 
14:30	44.3	40.9	44.3	70	35.1	6	12	90	0.00	30.139 
14:35	44.5	42.5	44.5	72	36.0	4	10	90	0.00	30.139 
14:40	44.6	44.6	44.6	72	36.1	3	7	90	0.00	30.139 
14:45	44.6	41.9	44.6	71	35.8	5	12	90	0.00	30.141 
14:50	44.5	42.5	44.5	72	36.0	4	11	90	0.00	30.141 
14:55	44.3	42.3	44.3	73	36.2	4	9	90	0.00	30.141 
15:00	44.3	44.3	44.3	74	36.5	3	14	90	0.00	30.142 
15:05	44.2	42.2	44.2	73	36.1	4	11	90	0.00	30.142 
15:10	44.1	41.3	44.1	73	36.0	5	10	112	0.00	30.142 
15:15	44.1	42.1	44.1	73	36.0	4	7	90	0.00	30.127 
15:20	44.2	42.2	44.2	73	36.1	4	11	90	0.00	30.127 
15:25	44.3	42.3	44.3	74	36.5	4	12	90	0.00	30.127 
15:30	44.2	42.2	44.2	74	36.4	4	10	90	0.00	30.115 
15:35	44.1	41.3	44.1	73	36.0	5	11	90	0.00	30.115 
15:40	44.2	42.2	44.2	74	36.4	4	10	112	0.00	30.115 
15:45	44.3	42.3	44.3	73	36.2	4	11	90	0.00	30.109 
15:50	44.5	41.8	44.5	73	36.4	5	12	90	0.00	30.109 
15:55	44.5	41.8	44.5	73	36.4	5	11	112	0.00	30.109 
16:00	44.5	42.5	44.5	73	36.4	4	10	112	0.00	30.111 
16:05	44.6	42.6	44.6	73	36.5	4	12	90	0.00	30.111 
16:10	44.8	42.9	44.8	73	36.7	4	11	90	0.00	30.111 
16:15	44.9	43.0	44.9	73	36.8	4	7	90	0.00	30.111 
16:20	45.1	43.2	45.1	72	36.6	4	11	90	0.00	30.111 
16:25	44.8	42.9	44.8	73	36.7	4	9	90	0.00	30.111 
16:30	44.8	42.1	44.8	73	36.7	5	16	90	0.00	30.123 
16:35	44.6	42.6	44.6	73	36.5	4	11	112	0.00	30.123 
16:40	44.8	42.9	44.8	73	36.7	4	10	90	0.00	30.123 
16:45	44.8	44.8	44.8	74	37.0	3	9	90	0.00	30.124 
16:50	44.9	44.9	44.9	74	37.1	3	10	90	0.00	30.124 
16:55	44.9	44.9	44.9	74	37.1	3	6	112	0.00	30.124 
17:00	45.1	43.2	45.1	73	37.0	4	11	90	0.00	30.118 
17:05	45.2	45.2	45.2	74	37.4	2	5	90	0.00	30.118 
17:10	45.2	45.2	45.2	74	37.4	3	6	90	0.00	30.118 
17:15	45.2	45.2	45.2	74	37.4	2	6	112	0.00	30.128 
17:20	45.2	45.2	45.2	74	37.4	1	4	90	0.00	30.128 
17:25	45.2	45.2	45.2	74	37.4	3	5	90	0.00	30.128 
17:30	45.4	45.4	45.4	75	37.9	2	5	90	0.00	30.125 
17:35	45.2	43.3	45.2	76	38.1	4	9	90	0.00	30.125 
17:40	45.4	45.4	45.4	76	38.3	2	6	90	0.00	30.125 
17:45	45.4	45.4	45.4	76	38.3	2	7	112	0.00	30.124 
17:50	45.4	45.4	45.4	76	38.3	2	7	90	0.00	30.124 
17:55	45.5	45.5	45.5	76	38.4	2	6	90	0.00	30.124 
18:00	45.5	45.5	45.5	77	38.7	2	5	90	0.00	30.137 
18:05	45.4	45.4	45.4	76	38.3	2	7	90	0.00	30.137 
18:10	45.4	45.4	45.4	77	38.6	1	3	90	0.00	30.137 
18:15	45.2	45.2	45.2	77	38.4	1	5	180	0.00	30.159 
18:20	45.1	45.1	45.1	78	38.7	1	3	90	0.00	30.159 
18:25	45.1	45.1	45.1	78	38.7	2	5	90	0.00	30.159 
18:30	44.8	44.8	44.8	79	38.7	3	6	90	0.00	30.158 
18:35	44.6	44.6	44.6	79	38.5	3	10	90	0.00	30.158 
18:40	44.6	44.6	44.6	79	38.5	2	9	90	0.00	30.158 
18:45	44.6	44.6	44.6	80	38.8	1	7	90	0.00	30.145 
18:50	44.6	44.6	44.6	80	38.8	2	7	90	0.00	30.145 
18:55	44.6	44.6	44.6	81	39.1	1	6	90	0.00	30.145 
19:00	44.6	44.6	44.6	81	39.1	2	4	90	0.00	30.141 
19:05	44.5	44.5	44.5	81	39.0	3	7	90	0.00	30.141 
19:10	44.3	44.3	44.3	81	38.8	2	5	90	0.00	30.141 
19:15	44.2	44.2	44.2	82	39.1	2	9	112	0.00	30.136 
19:20	44.1	44.1	44.1	81	38.6	2	7	90	0.00	30.136 
19:25	44.1	44.1	44.1	81	38.6	3	13	90	0.00	30.136 
19:30	44.1	44.1	44.1	82	39.0	2	6	68	0.00	30.142 
19:35	44.1	44.1	44.1	82	39.0	2	4	90	0.00	30.142 
19:40	44.1	44.1	44.1	82	39.0	1	5	90	0.00	30.142 
19:45	44.1	44.1	44.1	82	39.0	2	5	90	0.00	30.141 
19:50	44.1	44.1	44.1	82	39.0	2	5	90	0.00	30.141 
19:55	44.1	44.1	44.1	82	39.0	2	6	112	0.00	30.141 
20:00	44.1	44.1	44.1	83	39.3	2	5	90	0.00	30.146 
20:05	44.1	44.1	44.1	84	39.6	1	4	90	0.00	30.146 
20:10	43.9	43.9	43.9	84	39.4	2	7	68	0.00	30.146 
20:15	43.8	43.8	43.8	84	39.3	3	11	90	0.00	30.138 
20:20	43.6	43.6	43.6	84	39.1	3	7	112	0.00	30.138 
20:25	43.6	43.6	43.6	84	39.1	2	9	90	0.00	30.138 
20:30	43.5	43.5	43.5	84	39.0	3	8	90	0.00	30.139 
20:35	43.5	43.5	43.5	84	39.0	1	5	90	0.00	30.139 
20:40	43.3	43.3	43.3	85	39.1	2	5	90	0.00	30.139 
20:45	43.3	43.3	43.3	85	39.1	2	6	90	0.00	30.144 
20:50	43.3	43.3	43.3	85	39.1	1	4	90	0.00	30.144 
20:55	43.3	43.3	43.3	85	39.1	3	5	90	0.00	30.144 
21:00	43.3	43.3	43.3	84	38.8	3	7	90	0.00	30.162 
21:05	43.3	43.3	43.3	84	38.8	2	4	68	0.00	30.162 
21:10	43.3	43.3	43.3	84	38.8	2	5	68	0.00	30.162 
21:15	43.3	43.3	43.3	84	38.8	2	5	112	0.00	30.165 
21:20	43.3	43.3	43.3	84	38.8	2	6	90	0.00	30.165 
21:25	43.2	43.2	43.2	84	38.7	2	7	90	0.00	30.165 
21:30	43.2	43.2	43.2	84	38.7	2	5	68	0.00	30.164 
21:35	43.1	43.1	43.1	84	38.6	1	3	68	0.00	30.164 
21:40	43.1	43.1	43.1	84	38.6	2	9	90	0.00	30.164 
21:45	42.9	42.9	42.9	84	38.4	1	3	68	0.00	30.180 
21:50	42.9	42.9	42.9	84	38.4	1	4	68	0.00	30.180 
21:55	42.9	42.9	42.9	84	38.4	1	3	112	0.00	30.180 
22:00	42.8	42.8	42.8	84	38.3	1	3	112	0.00	30.192 
22:05	42.6	42.6	42.6	84	38.1	0	3	112	0.00	30.192 
22:10	42.6	42.6	42.6	84	38.1	1	4	112	0.00	30.192 
22:15	42.5	42.5	42.5	84	38.0	0	2	112	0.00	30.198 
22:20	42.5	42.5	42.5	84	38.0	1	5	112	0.00	30.198 
22:25	42.3	42.3	42.3	84	37.8	1	4	135	0.00	30.198 
22:30	42.2	42.2	42.2	84	37.7	1	4	112	0.00	30.210 
22:35	42.1	42.1	42.1	84	37.6	1	6	112	0.00	30.210 
22:40	42.1	42.1	42.1	84	37.6	1	4	90	0.00	30.210 
22:45	41.9	41.9	41.9	83	37.1	1	4	112	0.00	30.215 
22:50	41.8	41.8	41.8	83	37.0	0	4	112	0.00	30.215 
22:55	41.6	41.6	41.6	83	36.8	2	9	90	0.00	30.215 
23:00	41.5	41.5	41.5	83	36.7	2	7	135	0.00	30.218 
23:05	41.3	41.3	41.3	83	36.5	1	3	112	0.00	30.218 
23:10	41.2	41.2	41.2	82	36.1	2	6	90	0.00	30.218 
23:15	41.2	41.2	41.2	82	36.1	1	5	90	0.00	30.222 
23:20	41.1	41.1	41.1	82	36.0	2	5	112	0.00	30.222 
23:25	40.9	40.9	40.9	82	35.8	1	4	90	0.00	30.222 
23:30	40.8	40.8	40.8	82	35.7	1	3	90	0.00	30.224 
23:35	40.6	40.6	40.6	83	35.8	1	3	90	0.00	30.224 
23:40	40.6	40.6	40.6	83	35.8	1	3	90	0.00	30.224 
23:45	40.5	40.5	40.5	83	35.8	0	2	90	0.00	30.228 
23:50	40.3	40.3	40.3	83	35.6	0	2	90	0.00	30.228 
23:55	40.1	40.1	40.1	84	35.7	0	1	90	0.00	30.228 

CoCoRaHS
IN-AL-39
A2 Web Hosting
Creative Commons License
GoDaddy
search engine by freefind advanced

loaded 2018-11-16 00:14:13 • last modified 2010-11-18 10:43:29
Privacy PolicyDisclaimer
• wx.awcolley.com is powered by PmWiki v.2002016 •
• all content (unless otherwise noted) © 2018 A W Colley